Station Historical Data
Daily Summary for January 26, 2018 Units:  English    Metric   Both
« Previous Day
Next Day »
Daily Weekly Monthly Yearly Custom
  High: Low: Average:
Temperature: TemperatureF °F 22.9 °F 35.9 °F
Dew Point: DewpointF °F 17.1 °F 24.3 °F
Humidity: Humidity% 48% 63%
Wind Speed: WindSpeedMPHmph 0.0mph 2.9mph
Wind Gust: WindSpeedGustMPHmph - -
Wind- - South
Pressure: PressureIn in 30.24 in -
Precipitation: 0.00 in    
Historical Graphs
 
 
Tabular Data for January 26, 2018
Time Temperature Dew Point Pressure Wind Wind Speed Wind Gust Humidity Rainfall Rate (Hourly)
TemperatureF °F DewpointF °F PressureIn in Calm     Humidity% HourlyPrecipIn in
00:00 27.5 °F 20.0 °F 30.57 in Calm     73% 0.00 in
00:05 27.6 °F 20.1 °F 30.57 in Calm     73% 0.00 in
00:10 27.7 °F 20.5 °F 30.57 in Calm     74% 0.00 in
00:15 27.7 °F 20.5 °F 30.57 in Calm     74% 0.00 in
00:20 27.7 °F 20.5 °F 30.57 in Calm     74% 0.00 in
00:25 27.7 °F 20.5 °F 30.57 in Calm     74% 0.00 in
00:30 27.8 °F 20.6 °F 30.57 in Calm     74% 0.00 in
00:35 27.8 °F 20.6 °F 30.57 in Calm     74% 0.00 in
00:40 27.8 °F 20.6 °F 30.57 in Calm     74% 0.00 in
00:45 27.8 °F 20.3 °F 30.57 in Calm     73% 0.00 in
00:50 27.6 °F 20.4 °F 30.57 in Calm     74% 0.00 in
00:55 27.5 °F 20.3 °F 30.57 in Calm     74% 0.00 in
01:00 27.5 °F 20.3 °F 30.57 in Calm     74% 0.00 in
01:05 27.4 °F 20.2 °F 30.57 in Calm   4.0 mph 74% 0.00 in
01:10 27.6 °F 20.4 °F 30.57 in SSW 1.0 mph 4.0 mph 74% 0.00 in
01:15 27.6 °F 20.1 °F 30.57 in SSW 2.0 mph 4.0 mph 73% 0.00 in
01:20 27.6 °F 20.1 °F 30.57 in SSW 2.0 mph 3.0 mph 73% 0.00 in
01:25 27.6 °F 20.1 °F 30.56 in SSW 1.0 mph 3.0 mph 73% 0.00 in
01:30 27.6 °F 20.1 °F 30.57 in SSW 2.0 mph 3.0 mph 73% 0.00 in
01:35 27.5 °F 20.0 °F 30.57 in South 5.0 mph 5.0 mph 73% 0.00 in
01:40 27.5 °F 20.0 °F 30.57 in South 2.0 mph 5.0 mph 73% 0.00 in
01:45 27.5 °F 20.0 °F 30.57 in South 2.0 mph 5.0 mph 73% 0.00 in
01:50 27.4 °F 19.9 °F 30.57 in South 1.0 mph 4.0 mph 73% 0.00 in
01:55 27.3 °F 19.8 °F 30.57 in South 1.0 mph 4.0 mph 73% 0.00 in
02:00 27.3 °F 19.8 °F 30.57 in South 1.0 mph 5.0 mph 73% 0.00 in
02:05 27.3 °F 19.8 °F 30.57 in South 2.0 mph 4.0 mph 73% 0.00 in
02:10 27.1 °F 19.6 °F 30.57 in South 3.0 mph 4.0 mph 73% 0.00 in
02:15 26.9 °F 19.4 °F 30.56 in South 1.0 mph 4.0 mph 73% 0.00 in
02:20 26.6 °F 19.4 °F 30.56 in Calm   4.0 mph 74% 0.00 in
02:25 26.3 °F 19.1 °F 30.56 in South 1.0 mph 4.0 mph 74% 0.00 in
02:30 26.1 °F 18.9 °F 30.56 in Calm   3.0 mph 74% 0.00 in
02:35 26.0 °F 18.8 °F 30.56 in South 1.0 mph 3.0 mph 74% 0.00 in
02:40 25.7 °F 18.6 °F 30.56 in South 1.0 mph 3.0 mph 74% 0.00 in
02:45 25.5 °F 18.4 °F 30.56 in Calm   2.0 mph 74% 0.00 in
02:50 25.3 °F 18.5 °F 30.56 in South 1.0 mph 3.0 mph 75% 0.00 in
02:55 25.3 °F 18.5 °F 30.56 in South 1.0 mph 3.0 mph 75% 0.00 in
03:00 25.1 °F 18.3 °F 30.56 in Calm   3.0 mph 75% 0.00 in
03:05 25.0 °F 18.2 °F 30.56 in South 2.0 mph 3.0 mph 75% 0.00 in
03:10 25.0 °F 18.2 °F 30.56 in Calm   4.0 mph 75% 0.00 in
03:15 24.9 °F 18.1 °F 30.56 in South 1.0 mph 3.0 mph 75% 0.00 in
03:20 24.7 °F 17.9 °F 30.56 in South 1.0 mph 3.0 mph 75% 0.00 in
03:25 24.7 °F 18.2 °F 30.56 in South 1.0 mph 3.0 mph 76% 0.00 in
03:30 24.5 °F 18.0 °F 30.56 in South 1.0 mph 4.0 mph 76% 0.00 in
03:35 24.5 °F 18.0 °F 30.56 in South 1.0 mph 4.0 mph 76% 0.00 in
03:40 24.3 °F 17.8 °F 30.55 in Calm   2.0 mph 76% 0.00 in
03:50 24.1 °F 17.9 °F 30.55 in South 1.0 mph 4.0 mph 77% 0.00 in
03:55 24.1 °F 17.9 °F 30.55 in South 1.0 mph 4.0 mph 77% 0.00 in
04:00 24.1 °F 17.9 °F 30.55 in South 1.0 mph 3.0 mph 77% 0.00 in
04:05 24.0 °F 17.8 °F 30.55 in Calm   4.0 mph 77% 0.00 in
04:10 24.0 °F 17.8 °F 30.55 in South 1.0 mph 4.0 mph 77% 0.00 in
04:15 23.9 °F 17.7 °F 30.55 in South 1.0 mph 4.0 mph 77% 0.00 in
04:20 23.8 °F 17.6 °F 30.55 in Calm   4.0 mph 77% 0.00 in
04:25 23.8 °F 17.6 °F 30.55 in SSE 1.0 mph 4.0 mph 77% 0.00 in
04:30 23.7 °F 17.5 °F 30.55 in SSE 1.0 mph 4.0 mph 77% 0.00 in
04:35 23.5 °F 17.3 °F 30.55 in SSE 1.0 mph 3.0 mph 77% 0.00 in
04:40 23.5 °F 17.3 °F 30.55 in Calm   3.0 mph 77% 0.00 in
04:45 23.5 °F 17.6 °F 30.54 in SSE 2.0 mph 3.0 mph 78% 0.00 in
04:50 23.4 °F 17.6 °F 30.54 in SSE 2.0 mph 4.0 mph 78% 0.00 in
04:55 23.4 °F 17.6 °F 30.54 in SSE 1.0 mph 4.0 mph 78% 0.00 in
05:00 23.4 °F 17.6 °F 30.54 in SSE 1.0 mph 4.0 mph 78% 0.00 in
05:05 23.4 °F 17.6 °F 30.54 in SE 2.0 mph 4.0 mph 78% 0.00 in
05:10 23.3 °F 17.2 °F 30.54 in SE 2.0 mph 4.0 mph 77% 0.00 in
05:15 23.2 °F 17.4 °F 30.54 in SE 1.0 mph 4.0 mph 78% 0.00 in
05:20 23.1 °F 17.3 °F 30.54 in SE 1.0 mph 4.0 mph 78% 0.00 in
05:25 23.1 °F 17.3 °F 30.54 in SE 2.0 mph 4.0 mph 78% 0.00 in
05:30 23.0 °F 17.2 °F 30.54 in Calm   4.0 mph 78% 0.00 in
05:35 23.0 °F 17.2 °F 30.54 in SE 2.0 mph 4.0 mph 78% 0.00 in
05:40 23.0 °F 17.2 °F 30.53 in SE 2.0 mph 5.0 mph 78% 0.00 in
05:45 23.0 °F 17.2 °F 30.53 in SE 3.0 mph 5.0 mph 78% 0.00 in
05:50 23.0 °F 17.2 °F 30.53 in SE 2.0 mph 5.0 mph 78% 0.00 in
05:55 23.0 °F 17.2 °F 30.53 in SE 3.0 mph 5.0 mph 78% 0.00 in
06:00 23.0 °F 17.2 °F 30.53 in SE 2.0 mph 5.0 mph 78% 0.00 in
06:05 23.1 °F 17.3 °F 30.53 in SE 2.0 mph 5.0 mph 78% 0.00 in
06:10 23.1 °F 17.3 °F 30.53 in SE 2.0 mph 5.0 mph 78% 0.00 in
06:15 22.9 °F 17.1 °F 30.53 in SE 1.0 mph 4.0 mph 78% 0.00 in
06:20 22.9 °F 17.1 °F 30.53 in SE 1.0 mph 4.0 mph 78% 0.00 in
06:25 23.0 °F 17.2 °F 30.53 in ESE 1.0 mph 4.0 mph 78% 0.00 in
06:30 23.0 °F 17.2 °F 30.53 in ESE 1.0 mph 5.0 mph 78% 0.00 in
06:35 23.0 °F 17.2 °F 30.53 in ESE 1.0 mph 5.0 mph 78% 0.00 in
06:40 23.0 °F 17.2 °F 30.53 in ESE 1.0 mph 4.0 mph 78% 0.00 in
06:45 23.0 °F 17.2 °F 30.53 in Calm   5.0 mph 78% 0.00 in
06:50 23.0 °F 17.2 °F 30.53 in ESE 3.0 mph 7.0 mph 78% 0.00 in
06:55 23.1 °F 17.3 °F 30.53 in ESE 1.0 mph 5.0 mph 78% 0.00 in
07:00 23.2 °F 17.4 °F 30.53 in ESE 2.0 mph 5.0 mph 78% 0.00 in
07:05 23.2 °F 17.4 °F 30.53 in ESE 2.0 mph 5.0 mph 78% 0.00 in
07:10 23.2 °F 17.4 °F 30.52 in ESE 2.0 mph 5.0 mph 78% 0.00 in
07:15 23.2 °F 17.4 °F 30.53 in ESE 2.0 mph 7.0 mph 78% 0.00 in
07:20 23.3 °F 17.5 °F 30.52 in ESE 2.0 mph 7.0 mph 78% 0.00 in
07:25 23.4 °F 17.6 °F 30.52 in ESE 2.0 mph 5.0 mph 78% 0.00 in
07:30 23.4 °F 17.6 °F 30.52 in ESE 2.0 mph 6.0 mph 78% 0.00 in
07:35 23.5 °F 17.3 °F 30.52 in ESE 3.0 mph 5.0 mph 77% 0.00 in
07:40 23.5 °F 17.6 °F 30.52 in ESE 1.0 mph 6.0 mph 78% 0.00 in
07:45 23.6 °F 17.4 °F 30.52 in ESE 2.0 mph 5.0 mph 77% 0.00 in
07:50 23.7 °F 17.5 °F 30.52 in ESE 1.0 mph 4.0 mph 77% 0.00 in
07:55 23.7 °F 17.5 °F 30.52 in Calm   4.0 mph 77% 0.00 in
08:00 23.7 °F 17.5 °F 30.52 in East 1.0 mph 7.0 mph 77% 0.00 in
08:05 23.8 °F 17.9 °F 30.52 in ESE 2.0 mph 7.0 mph 78% 0.00 in
08:10 24.0 °F 17.8 °F 30.52 in ESE 2.0 mph 5.0 mph 77% 0.00 in
08:15 24.0 °F 17.8 °F 30.52 in ESE 1.0 mph 5.0 mph 77% 0.00 in
08:20 24.3 °F 18.1 °F 30.52 in ESE 1.0 mph 6.0 mph 77% 0.00 in
08:25 24.6 °F 18.4 °F 30.51 in ESE 2.0 mph 6.0 mph 77% 0.00 in
08:30 24.9 °F 18.7 °F 30.51 in ESE 2.0 mph 5.0 mph 77% 0.00 in
08:35 25.1 °F 18.6 °F 30.51 in ESE 2.0 mph 5.0 mph 76% 0.00 in
08:40 25.4 °F 18.9 °F 30.51 in Calm   5.0 mph 76% 0.00 in
08:45 25.7 °F 19.2 °F 30.51 in SE 1.0 mph 4.0 mph 76% 0.00 in
08:50 26.1 °F 19.3 °F 30.51 in Calm   3.0 mph 75% 0.00 in
08:55 26.4 °F 19.5 °F 30.51 in ESE 2.0 mph 7.0 mph 75% 0.00 in
09:00 26.9 °F 19.7 °F 30.51 in ESE 2.0 mph 5.0 mph 74% 0.00 in
09:05 27.3 °F 20.1 °F 30.51 in ESE 1.0 mph 5.0 mph 74% 0.00 in
09:10 27.6 °F 20.1 °F 30.50 in ESE 2.0 mph 5.0 mph 73% 0.00 in
09:15 28.1 °F 20.6 °F 30.51 in SE 2.0 mph 7.0 mph 73% 0.00 in
09:20 28.4 °F 20.5 °F 30.51 in South 2.0 mph 6.0 mph 72% 0.00 in
09:25 28.9 °F 21.0 °F 30.51 in SE 3.0 mph 6.0 mph 72% 0.00 in
09:30 29.3 °F 21.1 °F 30.50 in SE 3.0 mph 6.0 mph 71% 0.00 in
09:35 29.7 °F 21.1 °F 30.50 in SE 3.0 mph 6.0 mph 70% 0.00 in
09:40 30.1 °F 21.5 °F 30.50 in SSE 3.0 mph 6.0 mph 70% 0.00 in
09:45 30.9 °F 21.9 °F 30.50 in SE 4.0 mph 4.0 mph 69% 0.00 in
09:50 31.2 °F 22.2 °F 30.50 in SE 1.0 mph 6.0 mph 69% 0.00 in
09:55 31.8 °F 22.4 °F 30.50 in SE 4.0 mph 6.0 mph 68% 0.00 in
10:00 32.2 °F 22.5 °F 30.50 in ESE 2.0 mph 5.0 mph 67% 0.00 in
10:05 32.5 °F 22.4 °F 30.50 in SE 6.0 mph 7.0 mph 66% 0.00 in
10:10 32.9 °F 22.8 °F 30.50 in SE 3.0 mph 7.0 mph 66% 0.00 in
10:15 33.4 °F 23.3 °F 30.49 in SE 3.0 mph 6.0 mph 66% 0.00 in
10:20 34.0 °F 23.5 °F 30.49 in SE 3.0 mph 5.0 mph 65% 0.00 in
10:25 34.8 °F 23.9 °F 30.49 in SSE 2.0 mph 5.0 mph 64% 0.00 in
10:30 35.5 °F 24.5 °F 30.49 in SE 2.0 mph 5.0 mph 64% 0.00 in
10:35 36.1 °F 24.7 °F 30.49 in SSE 1.0 mph 6.0 mph 63% 0.00 in
10:40 36.9 °F 25.5 °F 30.49 in SSE 4.0 mph 5.0 mph 63% 0.00 in
10:45 37.3 °F 24.7 °F 30.49 in South 4.0 mph 6.0 mph 60% 0.00 in
10:50 37.7 °F 25.5 °F 30.49 in South 3.0 mph 8.0 mph 61% 0.00 in
10:55 38.3 °F 25.2 °F 30.49 in SSW 4.0 mph 10.0 mph 59% 0.00 in
11:00 38.7 °F 25.2 °F 30.48 in South 5.0 mph 8.0 mph 58% 0.00 in
11:05 39.3 °F 25.7 °F 30.48 in SSE 6.0 mph 8.0 mph 58% 0.00 in
11:10 39.2 °F 25.6 °F 30.48 in South 4.0 mph 10.0 mph 58% 0.00 in
11:15 39.4 °F 25.4 °F 30.47 in South 5.0 mph 10.0 mph 57% 0.00 in
11:20 39.7 °F 25.7 °F 30.47 in South 5.0 mph 9.0 mph 57% 0.00 in
11:25 40.5 °F 26.0 °F 30.47 in SSW 4.0 mph 9.0 mph 56% 0.00 in
11:30 40.4 °F 25.9 °F 30.47 in South 5.0 mph 9.0 mph 56% 0.00 in
11:35 40.4 °F 25.5 °F 30.46 in SSW 5.0 mph 9.0 mph 55% 0.00 in
11:40 40.5 °F 26.0 °F 30.46 in SSW 4.0 mph 8.0 mph 56% 0.00 in
11:45 40.7 °F 26.2 °F 30.46 in SSW 4.0 mph 7.0 mph 56% 0.00 in
11:50 41.1 °F 26.6 °F 30.45 in South 7.0 mph 8.0 mph 56% 0.00 in
11:55 41.4 °F 26.4 °F 30.44 in South 5.0 mph 8.0 mph 55% 0.00 in
12:00 41.9 °F 26.4 °F 30.44 in South 5.0 mph 7.0 mph 54% 0.00 in
12:05 42.0 °F 26.5 °F 30.44 in South 3.0 mph 7.0 mph 54% 0.00 in
12:10 42.5 °F 27.0 °F 30.44 in SW 2.0 mph 7.0 mph 54% 0.00 in
12:15 43.2 °F 27.7 °F 30.43 in SSW 4.0 mph 7.0 mph 54% 0.00 in
12:20 43.2 °F 27.2 °F 30.43 in SSW 3.0 mph 8.0 mph 53% 0.00 in
12:25 43.3 °F 27.3 °F 30.43 in SSW 4.0 mph 8.0 mph 53% 0.00 in
12:30 43.6 °F 27.6 °F 30.43 in SSW 4.0 mph 9.0 mph 53% 0.00 in
12:35 44.2 °F 28.1 °F 30.42 in SSW 4.0 mph 9.0 mph 53% 0.00 in
12:40 44.3 °F 27.8 °F 30.42 in South 4.0 mph 7.0 mph 52% 0.00 in
12:45 44.4 °F 27.9 °F 30.42 in SSW 5.0 mph 8.0 mph 52% 0.00 in
12:50 44.6 °F 28.0 °F 30.42 in SE 7.0 mph 7.0 mph 52% 0.00 in
12:55 44.3 °F 27.8 °F 30.41 in South 6.0 mph 9.0 mph 52% 0.00 in
13:00 44.5 °F 28.0 °F 30.41 in South 2.0 mph 8.0 mph 52% 0.00 in
13:05 45.1 °F 28.5 °F 30.41 in South 5.0 mph 7.0 mph 52% 0.00 in
13:10 45.1 °F 28.0 °F 30.41 in SSW 4.0 mph 9.0 mph 51% 0.00 in
13:15 45.5 °F 28.4 °F 30.41 in SSW 4.0 mph 9.0 mph 51% 0.00 in
13:20 45.6 °F 29.0 °F 30.41 in SSW 4.0 mph 7.0 mph 52% 0.00 in
13:25 46.3 °F 29.1 °F 30.41 in South 3.0 mph 6.0 mph 51% 0.00 in
13:30 46.5 °F 28.8 °F 30.40 in SSW 3.0 mph 8.0 mph 50% 0.00 in
13:35 46.2 °F 28.6 °F 30.40 in SSW 4.0 mph 8.0 mph 50% 0.00 in
13:40 46.3 °F 28.7 °F 30.40 in SW 3.0 mph 8.0 mph 50% 0.00 in
13:45 46.5 °F 29.3 °F 30.40 in SSW 4.0 mph 9.0 mph 51% 0.00 in
13:50 46.7 °F 29.5 °F 30.39 in SSW 3.0 mph 10.0 mph 51% 0.00 in
13:55 47.0 °F 29.3 °F 30.39 in SSE 6.0 mph 8.0 mph 50% 0.00 in
14:00 47.1 °F 28.9 °F 30.39 in South 7.0 mph 11.0 mph 49% 0.00 in
14:05 47.0 °F 29.3 °F 30.39 in South 7.0 mph 11.0 mph 50% 0.00 in
14:10 47.1 °F 29.9 °F 30.38 in South 4.0 mph 10.0 mph 51% 0.00 in
14:15 47.4 °F 29.7 °F 30.38 in South 5.0 mph 10.0 mph 50% 0.00 in
14:20 47.5 °F 29.3 °F 30.38 in South 5.0 mph 10.0 mph 49% 0.00 in
14:25 47.7 °F 29.5 °F 30.38 in SSW 4.0 mph 9.0 mph 49% 0.00 in
14:30 47.6 °F 29.4 °F 30.38 in SW 6.0 mph 8.0 mph 49% 0.00 in
14:35 47.6 °F 29.9 °F 30.38 in WSW 4.0 mph 9.0 mph 50% 0.00 in
14:40 47.5 °F 29.3 °F 30.38 in SSW 5.0 mph 11.0 mph 49% 0.00 in
14:45 47.2 °F 29.5 °F 30.37 in South 7.0 mph 13.0 mph 50% 0.00 in
14:50 47.0 °F 29.3 °F 30.37 in South 10.0 mph 11.0 mph 50% 0.00 in
14:55 47.4 °F 30.2 °F 30.37 in SW 8.0 mph 10.0 mph 51% 0.00 in
15:00 47.6 °F 30.3 °F 30.37 in SSW 4.0 mph 11.0 mph 51% 0.00 in
15:05 47.8 °F 30.0 °F 30.37 in South 6.0 mph 10.0 mph 50% 0.00 in
15:10 47.5 °F 29.3 °F 30.37 in SSW 5.0 mph 9.0 mph 49% 0.00 in
15:15 47.5 °F 29.8 °F 30.37 in SSW 5.0 mph 9.0 mph 50% 0.00 in
15:20 47.9 °F 30.1 °F 30.37 in SSW 4.0 mph 9.0 mph 50% 0.00 in
15:25 47.6 °F 29.9 °F 30.37 in SSE 7.0 mph 9.0 mph 50% 0.00 in
15:35 47.6 °F 29.9 °F 30.37 in SSW 4.0 mph 12.0 mph 50% 0.00 in
15:40 47.4 °F 29.7 °F 30.37 in SW 7.0 mph 8.0 mph 50% 0.00 in
15:45 47.5 °F 29.8 °F 30.37 in SW 4.0 mph 6.0 mph 50% 0.00 in
15:50 47.3 °F 29.6 °F 30.37 in SSW 4.0 mph 11.0 mph 50% 0.00 in
15:55 47.0 °F 29.8 °F 30.37 in SSW 2.0 mph 8.0 mph 51% 0.00 in
16:00 47.0 °F 29.8 °F 30.37 in SSW 4.0 mph 11.0 mph 51% 0.00 in
16:05 46.7 °F 29.5 °F 30.37 in SSW 4.0 mph 11.0 mph 51% 0.00 in
16:10 46.6 °F 29.9 °F 30.36 in SW 5.0 mph 10.0 mph 52% 0.00 in
16:15 46.5 °F 29.8 °F 30.36 in South 2.0 mph 8.0 mph 52% 0.00 in
16:20 46.4 °F 29.7 °F 30.36 in SSW 4.0 mph 8.0 mph 52% 0.00 in
16:25 46.1 °F 29.4 °F 30.36 in SSW 4.0 mph 8.0 mph 52% 0.00 in
16:30 45.9 °F 29.7 °F 30.36 in SSW 4.0 mph 8.0 mph 53% 0.00 in
16:35 45.6 °F 29.4 °F 30.36 in SSW 3.0 mph 8.0 mph 53% 0.00 in
16:40 45.4 °F 29.7 °F 30.36 in SSW 4.0 mph 8.0 mph 54% 0.00 in
16:45 45.2 °F 29.5 °F 30.35 in South 4.0 mph 5.0 mph 54% 0.00 in
16:50 44.7 °F 29.5 °F 30.36 in South 3.0 mph 5.0 mph 55% 0.00 in
16:55 44.4 °F 29.2 °F 30.36 in South 3.0 mph 8.0 mph 55% 0.00 in
17:00 44.3 °F 29.6 °F 30.36 in SSW 3.0 mph 6.0 mph 56% 0.00 in
17:05 44.0 °F 29.3 °F 30.36 in SSW 3.0 mph 6.0 mph 56% 0.00 in
17:10 43.8 °F 29.1 °F 30.36 in South 1.0 mph 5.0 mph 56% 0.00 in
17:15 43.5 °F 29.3 °F 30.36 in SSW 1.0 mph 4.0 mph 57% 0.00 in
17:20 43.3 °F 29.1 °F 30.36 in South 1.0 mph 5.0 mph 57% 0.00 in
17:25 43.1 °F 28.9 °F 30.35 in South 2.0 mph 5.0 mph 57% 0.00 in
17:30 43.0 °F 29.2 °F 30.35 in South 2.0 mph 4.0 mph 58% 0.00 in
17:35 43.0 °F 29.2 °F 30.35 in South 2.0 mph 4.0 mph 58% 0.00 in
17:40 42.8 °F 29.0 °F 30.35 in SSE 2.0 mph 4.0 mph 58% 0.00 in
17:45 42.8 °F 29.0 °F 30.35 in SSE 1.0 mph 3.0 mph 58% 0.00 in
17:50 42.5 °F 28.8 °F 30.35 in Calm   2.0 mph 58% 0.00 in
17:55 42.3 °F 29.0 °F 30.34 in SSE 3.0 mph 3.0 mph 59% 0.00 in
18:00 42.1 °F 28.8 °F 30.34 in SSE 1.0 mph 3.0 mph 59% 0.00 in
18:04 41.9 °F 29.0 °F 30.34 in Calm   3.0 mph 60% 0.00 in
18:10 41.9 °F 29.0 °F 30.34 in Calm   4.0 mph 60% 0.00 in
18:15 41.8 °F 29.3 °F 30.34 in SSE 1.0 mph 5.0 mph 61% 0.00 in
18:20 41.7 °F 29.2 °F 30.34 in SSE 3.0 mph 4.0 mph 61% 0.00 in
18:25 41.6 °F 29.1 °F 30.34 in SSE 1.0 mph 4.0 mph 61% 0.00 in
18:30 41.6 °F 29.5 °F 30.34 in SSE 2.0 mph 5.0 mph 62% 0.00 in
18:35 41.5 °F 29.0 °F 30.33 in SSE 2.0 mph 5.0 mph 61% 0.00 in
18:40 41.3 °F 29.3 °F 30.33 in SSE 2.0 mph 5.0 mph 62% 0.00 in
18:45 41.5 °F 29.0 °F 30.33 in South 2.0 mph 5.0 mph 61% 0.00 in
18:50 41.5 °F 29.0 °F 30.33 in South 3.0 mph 5.0 mph 61% 0.00 in
18:55 41.3 °F 28.9 °F 30.33 in South 2.0 mph 5.0 mph 61% 0.00 in
19:00 41.2 °F 29.2 °F 30.32 in South 3.0 mph 6.0 mph 62% 0.00 in
19:05 41.1 °F 29.1 °F 30.32 in South 3.0 mph 6.0 mph 62% 0.00 in
19:10 41.1 °F 29.1 °F 30.32 in South 3.0 mph 6.0 mph 62% 0.00 in
19:14 40.7 °F 28.7 °F 30.32 in South 3.0 mph 4.0 mph 62% 0.00 in
19:20 40.3 °F 28.7 °F 30.31 in SSW 1.0 mph 6.0 mph 63% 0.00 in
19:25 40.6 °F 29.0 °F 30.32 in South 5.0 mph 6.0 mph 63% 0.00 in
19:30 40.6 °F 29.0 °F 30.31 in South 3.0 mph 5.0 mph 63% 0.00 in
19:35 40.6 °F 29.0 °F 30.31 in SSW 7.0 mph 7.0 mph 63% 0.00 in
19:39 41.1 °F 29.1 °F 30.31 in South 3.0 mph 7.0 mph 62% 0.00 in
19:45 41.5 °F 29.0 °F 30.31 in SSW 3.0 mph 7.0 mph 61% 0.00 in
19:50 41.9 °F 29.4 °F 30.31 in South 5.0 mph 7.0 mph 61% 0.00 in
19:55 42.5 °F 29.6 °F 30.31 in SSW 4.0 mph 8.0 mph 60% 0.00 in
20:00 42.8 °F 29.9 °F 30.31 in SSW 4.0 mph 10.0 mph 60% 0.00 in
20:05 43.0 °F 29.6 °F 30.31 in SSW 4.0 mph 10.0 mph 59% 0.00 in
20:10 43.0 °F 29.6 °F 30.31 in SSW 4.0 mph 10.0 mph 59% 0.00 in
20:14 43.2 °F 29.8 °F 30.31 in SSW 4.0 mph 9.0 mph 59% 0.00 in
20:19 43.3 °F 29.9 °F 30.31 in SSW 2.0 mph 9.0 mph 59% 0.00 in
20:25 43.4 °F 30.0 °F 30.31 in South 3.0 mph 7.0 mph 59% 0.00 in
20:30 43.6 °F 30.2 °F 30.31 in SSW 3.0 mph 10.0 mph 59% 0.00 in
20:35 43.8 °F 30.0 °F 30.31 in South 3.0 mph 8.0 mph 58% 0.00 in
20:40 44.1 °F 30.3 °F 30.30 in SW 2.0 mph 10.0 mph 58% 0.00 in
20:45 44.3 °F 30.0 °F 30.30 in SSW 4.0 mph 13.0 mph 57% 0.00 in
20:49 44.6 °F 30.3 °F 30.30 in SSW 5.0 mph 13.0 mph 57% 0.00 in
20:54 44.8 °F 30.0 °F 30.30 in SSW 5.0 mph 14.0 mph 56% 0.00 in
21:00 44.9 °F 30.1 °F 30.30 in SSW 5.0 mph 14.0 mph 56% 0.00 in
21:05 44.7 °F 30.0 °F 30.30 in SSW 4.0 mph 14.0 mph 56% 0.00 in
21:09 44.7 °F 30.0 °F 30.31 in South 8.0 mph 10.0 mph 56% 0.00 in
21:14 44.8 °F 30.0 °F 30.30 in South 3.0 mph 10.0 mph 56% 0.00 in
21:19 44.9 °F 29.7 °F 30.30 in West 8.0 mph 11.0 mph 55% 0.00 in
21:24 44.8 °F 29.6 °F 30.30 in SSW 5.0 mph 11.0 mph 55% 0.00 in
21:30 44.8 °F 29.6 °F 30.30 in SSW 5.0 mph 15.0 mph 55% 0.00 in
21:35 44.9 °F 29.7 °F 30.29 in SSW 4.0 mph 9.0 mph 55% 0.00 in
21:40 45.1 °F 29.4 °F 30.29 in SSW 5.0 mph 10.0 mph 54% 0.00 in
21:45 45.2 °F 29.5 °F 30.29 in South 7.0 mph 14.0 mph 54% 0.00 in
21:50 45.2 °F 29.5 °F 30.29 in SSW 3.0 mph 14.0 mph 54% 0.00 in
21:54 45.1 °F 29.4 °F 30.29 in SSW 5.0 mph 14.0 mph 54% 0.00 in
21:59 45.1 °F 29.4 °F 30.29 in SSW 6.0 mph 18.0 mph 54% 0.00 in
22:04 45.2 °F 29.1 °F 30.29 in South 8.0 mph 15.0 mph 53% 0.00 in
22:09 45.4 °F 29.3 °F 30.28 in SW 8.0 mph 13.0 mph 53% 0.00 in
22:14 45.4 °F 29.3 °F 30.28 in South 4.0 mph 11.0 mph 53% 0.00 in
22:19 45.3 °F 29.2 °F 30.28 in South 4.0 mph 13.0 mph 53% 0.00 in
22:24 45.4 °F 28.8 °F 30.27 in SSW 6.0 mph 14.0 mph 52% 0.00 in
22:29 45.5 °F 28.9 °F 30.27 in SSW 7.0 mph 14.0 mph 52% 0.00 in
22:35 45.4 °F 28.8 °F 30.27 in SSW 6.0 mph 13.0 mph 52% 0.00 in
22:40 45.4 °F 28.8 °F 30.27 in SSW 4.0 mph 16.0 mph 52% 0.00 in
22:45 45.4 °F 28.8 °F 30.27 in SSW 6.0 mph 11.0 mph 52% 0.00 in
22:50 45.3 °F 28.7 °F 30.27 in SSW 6.0 mph 9.0 mph 52% 0.00 in
22:55 45.2 °F 28.6 °F 30.26 in South 5.0 mph 13.0 mph 52% 0.00 in
22:59 45.4 °F 28.8 °F 30.26 in SSW 6.0 mph 15.0 mph 52% 0.00 in
23:04 45.7 °F 28.6 °F 30.26 in SSW 7.0 mph 16.0 mph 51% 0.00 in
23:10 45.9 °F 28.3 °F 30.26 in SSW 7.0 mph 16.0 mph 50% 0.00 in
23:15 45.9 °F 28.3 °F 30.26 in SSW 7.0 mph 16.0 mph 50% 0.00 in
23:19 46.0 °F 28.4 °F 30.25 in SW 5.0 mph 17.0 mph 50% 0.00 in
23:24 46.0 °F 27.9 °F 30.25 in SSW 4.0 mph 15.0 mph 49% 0.00 in
23:29 46.0 °F 27.9 °F 30.25 in South 5.0 mph 13.0 mph 49% 0.00 in
23:34 46.0 °F 27.9 °F 30.24 in SSW 6.0 mph 16.0 mph 49% 0.00 in
23:39 46.1 °F 28.0 °F 30.25 in SSW 6.0 mph 16.0 mph 49% 0.00 in
23:44 46.2 °F 27.6 °F 30.25 in SSW 5.0 mph 14.0 mph 48% 0.00 in
23:49 46.4 °F 27.8 °F 30.24 in SSW 4.0 mph 13.0 mph 48% 0.00 in
23:55 46.5 °F 27.8 °F 30.25 in South 8.0 mph 14.0 mph 48% 0.00 in
Buffalo, New York, USA
Compliments of Weather Underground - 2.5 mb